createdAt,value
2022-08-27T00:00:06.399Z,17.12
2022-08-27T00:02:36.091Z,17.51
2022-08-27T00:05:03.412Z,17.29
2022-08-27T00:07:30.195Z,17.03
2022-08-27T00:09:56.911Z,15.77
2022-08-27T00:12:23.549Z,17.59
2022-08-27T00:14:50.290Z,16.49
2022-08-27T00:17:17.175Z,17.02
2022-08-27T00:19:44.279Z,16.66
2022-08-27T00:22:12.100Z,16.90
2022-08-27T00:24:48.464Z,16.49
2022-08-27T00:27:15.897Z,16.85
2022-08-27T00:29:42.564Z,16.91
2022-08-27T00:32:09.376Z,17.07
2022-08-27T00:34:36.222Z,16.66
2022-08-27T00:37:03.645Z,17.23
2022-08-27T00:39:30.453Z,16.96
2022-08-27T00:41:57.120Z,15.05
2022-08-27T00:44:32.094Z,17.11
2022-08-27T00:47:01.558Z,16.92
2022-08-27T00:49:39.654Z,16.77
2022-08-27T00:52:17.043Z,17.12
2022-08-27T00:54:43.720Z,16.70
2022-08-27T00:57:10.358Z,17.17
2022-08-27T00:59:37.022Z,17.04
2022-08-27T01:02:19.289Z,17.21
2022-08-27T01:05:07.792Z,16.92
2022-08-27T01:07:37.783Z,15.82
2022-08-27T01:10:07.258Z,17.15
2022-08-27T01:12:33.999Z,16.91
2022-08-27T01:15:01.906Z,17.06
2022-08-27T01:17:28.562Z,16.64
2022-08-27T01:20:00.535Z,16.30
2022-08-27T01:22:31.724Z,17.18
2022-08-27T01:25:04.859Z,16.48
2022-08-27T01:27:31.783Z,16.29
2022-08-27T01:29:58.787Z,16.76
2022-08-27T01:32:28.720Z,16.32
2022-08-27T01:34:56.411Z,15.89
2022-08-27T01:37:24.264Z,17.07
2022-08-27T01:39:52.137Z,16.89
2022-08-27T01:42:39.338Z,16.47
2022-08-27T01:45:07.647Z,16.21
2022-08-27T01:47:34.917Z,16.88
2022-08-27T01:50:01.981Z,16.23
2022-08-27T01:52:29.855Z,16.62
2022-08-27T01:54:56.656Z,16.81
2022-08-27T01:57:26.018Z,16.65
2022-08-27T01:59:53.597Z,16.04
2022-08-27T02:02:21.288Z,15.81
2022-08-27T02:04:48.030Z,16.29
2022-08-27T02:07:14.676Z,16.57
2022-08-27T02:09:41.506Z,16.27
2022-08-27T02:12:09.471Z,16.22
2022-08-27T02:14:36.150Z,15.25
2022-08-27T02:17:02.916Z,16.95
2022-08-27T02:19:29.670Z,16.17
2022-08-27T02:22:00.312Z,16.63
2022-08-27T02:24:29.308Z,16.44
2022-08-27T02:27:03.239Z,15.79
2022-08-27T02:29:30.032Z,16.36
2022-08-27T02:31:56.870Z,16.63
2022-08-27T02:34:23.574Z,16.73
2022-08-27T02:36:50.501Z,16.54
2022-08-27T02:39:17.248Z,16.06
2022-08-27T02:41:43.919Z,16.93
2022-08-27T02:44:11.403Z,16.48
2022-08-27T02:46:41.833Z,16.84
2022-08-27T02:49:09.598Z,16.91
2022-08-27T02:51:36.844Z,16.78
2022-08-27T02:54:03.612Z,16.47
2022-08-27T02:56:30.248Z,16.50
2022-08-27T02:58:56.913Z,16.78
2022-08-27T03:01:23.671Z,16.52
2022-08-27T03:03:50.550Z,16.88
2022-08-27T03:06:17.286Z,16.84
2022-08-27T03:08:52.099Z,16.47
2022-08-27T03:11:20.585Z,16.22
2022-08-27T03:13:47.233Z,16.53
2022-08-27T03:16:13.963Z,15.60
2022-08-27T03:18:40.794Z,15.47
2022-08-27T03:21:08.391Z,16.25
2022-08-27T03:23:35.381Z,16.79
2022-08-27T03:26:04.463Z,16.61
2022-08-27T03:28:32.875Z,16.53
2022-08-27T03:31:01.496Z,16.47
2022-08-27T03:33:29.735Z,16.05
2022-08-27T03:35:56.466Z,16.45
2022-08-27T03:38:23.116Z,16.63
2022-08-27T03:40:50.333Z,16.64
2022-08-27T03:43:17.413Z,16.33
2022-08-27T03:46:00.694Z,16.50
2022-08-27T03:48:29.390Z,16.21
2022-08-27T03:50:56.080Z,16.92
2022-08-27T03:53:22.713Z,16.58
2022-08-27T03:55:49.404Z,15.76
2022-08-27T03:58:22.341Z,16.31
2022-08-27T04:00:49.012Z,16.65
2022-08-27T04:03:15.959Z,16.21
2022-08-27T04:05:45.306Z,16.03
2022-08-27T04:08:13.467Z,16.36
2022-08-27T04:10:41.274Z,15.99
2022-08-27T04:13:07.958Z,16.63
2022-08-27T04:15:34.717Z,16.95
2022-08-27T04:18:07.198Z,16.72
2022-08-27T04:20:35.753Z,16.72
2022-08-27T04:23:03.067Z,16.95
2022-08-27T04:25:29.751Z,16.12
2022-08-27T04:27:56.526Z,17.04
2022-08-27T04:30:23.272Z,16.92
2022-08-27T04:32:50.761Z,17.09
2022-08-27T04:35:17.727Z,17.05
2022-08-27T04:37:44.463Z,17.39
2022-08-27T04:40:12.394Z,17.26
2022-08-27T04:42:39.217Z,15.78
2022-08-27T04:45:06.290Z,17.09
2022-08-27T04:47:33.294Z,17.49
2022-08-27T04:49:59.959Z,17.83
2022-08-27T04:52:26.852Z,17.25
2022-08-27T04:54:53.574Z,17.80
2022-08-27T04:57:20.970Z,17.64
2022-08-27T04:59:47.668Z,16.52
2022-08-27T05:02:14.370Z,18.00
2022-08-27T05:04:41.153Z,17.72
2022-08-27T05:07:08.679Z,16.89
2022-08-27T05:09:35.396Z,18.11
2022-08-27T05:12:02.392Z,18.00
2022-08-27T05:14:30.457Z,17.60
2022-08-27T05:16:58.253Z,17.70
2022-08-27T05:19:24.960Z,17.85
2022-08-27T05:21:52.067Z,18.41
2022-08-27T05:24:18.736Z,18.36
2022-08-27T05:26:45.641Z,18.45
2022-08-27T05:29:12.361Z,18.48
2022-08-27T05:31:39.467Z,18.58
2022-08-27T05:34:10.623Z,18.61
2022-08-27T05:36:38.495Z,19.11
2022-08-27T05:39:16.116Z,19.06
2022-08-27T05:41:43.412Z,19.68
2022-08-27T05:44:39.103Z,20.07
2022-08-27T05:46:57.021Z,22.12
2022-08-27T05:49:23.896Z,22.88
2022-08-27T05:51:50.614Z,24.40
2022-08-27T05:54:20.036Z,25.07
2022-08-27T05:56:47.288Z,26.28
2022-08-27T05:59:34.791Z,27.47
2022-08-27T06:02:01.730Z,28.39
2022-08-27T06:04:28.376Z,29.36
2022-08-27T06:06:55.056Z,29.95
2022-08-27T06:09:24.614Z,31.05
2022-08-27T06:11:53.149Z,31.91
2022-08-27T06:14:19.895Z,32.09
2022-08-27T06:16:46.556Z,33.23
2022-08-27T06:19:13.343Z,33.29
2022-08-27T06:21:43.570Z,33.68
2022-08-27T06:24:13.037Z,33.45
2022-08-27T06:26:40.969Z,32.78
2022-08-27T06:29:08.125Z,31.54
2022-08-27T06:31:38.836Z,31.91
2022-08-27T06:34:08.056Z,30.59
2022-08-27T06:36:37.087Z,29.98
2022-08-27T06:39:04.139Z,28.74
2022-08-27T06:41:30.891Z,28.29
2022-08-27T06:43:58.535Z,26.25
2022-08-27T06:46:26.650Z,26.35
2022-08-27T06:48:54.521Z,25.64
2022-08-27T06:51:24.633Z,24.05
2022-08-27T06:53:52.623Z,24.62
2022-08-27T06:56:19.480Z,23.99
2022-08-27T06:58:46.253Z,23.52
2022-08-27T07:01:14.240Z,23.68
2022-08-27T07:03:41.622Z,22.84
2022-08-27T07:06:08.539Z,22.57
2022-08-27T07:08:35.227Z,23.44
2022-08-27T07:11:02.230Z,23.02
2022-08-27T07:13:29.793Z,23.52
2022-08-27T07:15:56.896Z,24.00
2022-08-27T07:18:27.847Z,23.85
2022-08-27T07:20:54.862Z,24.23
2022-08-27T07:23:21.813Z,24.16
2022-08-27T07:25:48.697Z,24.17
2022-08-27T07:28:15.417Z,24.06
2022-08-27T07:30:42.269Z,23.91
2022-08-27T07:33:09.440Z,23.59
2022-08-27T07:35:36.249Z,24.08
2022-08-27T07:38:02.906Z,24.04
2022-08-27T07:40:30.092Z,24.26
2022-08-27T07:43:15.749Z,24.42
2022-08-27T07:45:48.161Z,24.29
2022-08-27T07:48:16.483Z,24.41
2022-08-27T07:50:43.730Z,24.71
2022-08-27T07:53:10.523Z,24.70
2022-08-27T07:55:38.546Z,24.71
2022-08-27T07:58:05.596Z,24.61
2022-08-27T08:00:52.555Z,24.97
2022-08-27T08:03:19.279Z,23.96
2022-08-27T08:05:45.969Z,24.51
2022-08-27T08:08:13.674Z,24.22
2022-08-27T08:10:40.990Z,24.13
2022-08-27T08:13:08.144Z,23.86
2022-08-27T08:15:34.867Z,23.51
2022-08-27T08:18:01.786Z,23.52
2022-08-27T08:20:54.157Z,23.39
2022-08-27T08:23:15.397Z,23.29
2022-08-27T08:25:42.424Z,23.24
2022-08-27T08:28:09.479Z,22.92
2022-08-27T08:30:36.521Z,22.77
2022-08-27T08:33:03.254Z,22.58
2022-08-27T08:35:34.961Z,22.67
2022-08-27T08:38:07.407Z,21.19
2022-08-27T08:40:40.646Z,22.09
2022-08-27T08:43:30.459Z,22.54
2022-08-27T08:45:59.607Z,22.36
2022-08-27T08:48:26.715Z,22.33
2022-08-27T08:51:05.989Z,22.55
2022-08-27T08:53:51.196Z,22.49
2022-08-27T08:56:55.274Z,22.60
2022-08-27T08:59:28.608Z,22.47
2022-08-27T09:01:55.471Z,21.61
2022-08-27T09:04:22.165Z,21.67
2022-08-27T09:07:15.712Z,22.05
2022-08-27T09:09:57.663Z,22.50
2022-08-27T09:12:30.294Z,21.94
2022-08-27T09:15:07.579Z,21.78
2022-08-27T09:17:40.496Z,22.22
2022-08-27T09:20:13.247Z,22.21
2022-08-27T09:23:05.763Z,21.71
2022-08-27T09:25:34.378Z,22.98
2022-08-27T09:28:03.364Z,22.79
2022-08-27T09:30:32.323Z,23.10
2022-08-27T09:33:01.099Z,21.83
2022-08-27T09:35:57.564Z,23.72
2022-08-27T09:38:28.964Z,23.28
2022-08-27T09:40:56.877Z,23.50
2022-08-27T09:43:25.048Z,23.68
2022-08-27T09:46:00.300Z,22.27
2022-08-27T09:48:31.921Z,23.79
2022-08-27T09:51:08.932Z,23.66
2022-08-27T09:53:50.362Z,24.17
2022-08-27T09:56:25.221Z,23.80
2022-08-27T09:58:54.425Z,23.69
2022-08-27T10:01:26.146Z,23.80
2022-08-27T10:04:06.305Z,24.32
2022-08-27T10:06:33.246Z,23.19
2022-08-27T10:09:10.786Z,24.37
2022-08-27T10:12:05.523Z,24.34
2022-08-27T10:14:35.036Z,24.09
2022-08-27T10:17:35.677Z,24.29
2022-08-27T10:20:30.501Z,24.00
2022-08-27T10:23:06.729Z,24.18
2022-08-27T10:25:55.701Z,23.40
2022-08-27T10:28:36.849Z,24.03
2022-08-27T10:31:19.296Z,23.90
2022-08-27T10:33:55.555Z,23.42
2022-08-27T10:36:27.946Z,23.52
2022-08-27T10:39:16.666Z,23.72
2022-08-27T10:41:54.316Z,23.41
2022-08-27T10:45:04.515Z,23.54
2022-08-27T10:47:31.123Z,23.45
2022-08-27T10:50:03.708Z,23.06
2022-08-27T10:52:56.501Z,23.27
2022-08-27T10:55:30.191Z,23.18
2022-08-27T10:58:13.563Z,23.17
2022-08-27T11:00:45.610Z,22.20
2022-08-27T11:03:25.071Z,22.25
2022-08-27T11:05:52.048Z,22.50
2022-08-27T11:08:36.421Z,22.57
2022-08-27T11:11:35.011Z,21.97
2022-08-27T11:13:53.785Z,22.57
2022-08-27T11:16:33.237Z,21.62
2022-08-27T11:19:01.669Z,22.69
2022-08-27T11:21:46.154Z,22.67
2022-08-27T11:24:47.825Z,22.80
2022-08-27T11:27:15.921Z,22.76
2022-08-27T11:29:50.702Z,22.90
2022-08-27T11:32:23.893Z,22.98
2022-08-27T11:34:53.686Z,22.13
2022-08-27T11:37:39.830Z,23.17
2022-08-27T11:40:06.760Z,23.28
2022-08-27T11:42:42.246Z,23.12
2022-08-27T11:45:16.017Z,22.63
2022-08-27T11:47:54.697Z,23.63
2022-08-27T11:50:21.935Z,23.12
2022-08-27T11:52:58.358Z,23.91
2022-08-27T11:55:28.864Z,24.14
2022-08-27T11:58:18.271Z,24.48
2022-08-27T12:00:45.996Z,24.09
2022-08-27T12:03:18.904Z,24.85
2022-08-27T12:05:54.882Z,25.03
2022-08-27T12:08:22.465Z,25.20
2022-08-27T12:11:04.071Z,25.39
2022-08-27T12:14:00.278Z,24.55
2022-08-27T12:16:32.777Z,25.68
2022-08-27T12:19:20.839Z,25.75
2022-08-27T12:21:47.624Z,25.81
2022-08-27T12:24:30.809Z,25.48
2022-08-27T12:27:00.079Z,25.51
2022-08-27T12:29:51.087Z,25.16
2022-08-27T12:32:25.228Z,25.13
2022-08-27T12:35:20.031Z,25.80
2022-08-27T12:38:05.435Z,25.60
2022-08-27T12:40:46.496Z,25.65
2022-08-27T12:43:25.000Z,25.50
2022-08-27T12:46:19.877Z,25.85
2022-08-27T12:48:48.562Z,25.57
2022-08-27T12:51:31.298Z,25.88
2022-08-27T12:54:00.711Z,25.69
2022-08-27T12:56:49.269Z,25.89
2022-08-27T12:59:30.348Z,25.90
2022-08-27T13:02:31.337Z,25.93
2022-08-27T13:04:58.063Z,25.26
2022-08-27T13:07:28.793Z,25.53
2022-08-27T13:10:10.843Z,25.95
2022-08-27T13:12:37.481Z,24.78
2022-08-27T13:15:08.430Z,25.77
2022-08-27T13:17:41.762Z,25.78
2022-08-27T13:20:24.914Z,25.54
2022-08-27T13:22:52.652Z,25.89
2022-08-27T13:25:33.605Z,26.03
2022-08-27T13:28:13.347Z,25.81
2022-08-27T13:30:42.295Z,25.72
2022-08-27T13:33:11.309Z,24.70
2022-08-27T13:35:38.362Z,26.32
2022-08-27T13:38:05.744Z,26.19
2022-08-27T13:40:34.616Z,26.23
2022-08-27T13:43:08.719Z,25.77
2022-08-27T13:45:36.915Z,25.64
2022-08-27T13:48:04.282Z,25.68
2022-08-27T13:50:31.682Z,25.67
2022-08-27T13:53:23.852Z,25.32
2022-08-27T13:55:50.738Z,25.19
2022-08-27T13:58:27.839Z,25.42
2022-08-27T14:00:54.929Z,25.26
2022-08-27T14:03:31.622Z,25.53
2022-08-27T14:05:58.599Z,25.52
2022-08-27T14:08:29.743Z,24.72
2022-08-27T14:11:05.101Z,25.22
2022-08-27T14:13:45.398Z,25.55
2022-08-27T14:16:27.728Z,24.79
2022-08-27T14:19:14.361Z,25.72
2022-08-27T14:21:42.485Z,25.06
2022-08-27T14:24:09.283Z,25.37
2022-08-27T14:26:35.939Z,24.75
2022-08-27T14:29:02.702Z,25.68
2022-08-27T14:31:38.186Z,25.50
2022-08-27T14:34:06.912Z,25.35
2022-08-27T14:36:37.126Z,25.58
2022-08-27T14:39:04.168Z,24.99
2022-08-27T14:41:31.431Z,25.14
2022-08-27T14:44:10.265Z,25.58
2022-08-27T14:46:41.489Z,25.51
2022-08-27T14:49:14.894Z,25.00
2022-08-27T14:51:43.020Z,25.47
2022-08-27T14:54:09.818Z,25.24
2022-08-27T14:56:36.492Z,25.20
2022-08-27T14:59:03.364Z,25.14
2022-08-27T15:01:30.119Z,24.72
2022-08-27T15:03:56.906Z,25.12
2022-08-27T15:06:23.831Z,24.93
2022-08-27T15:08:51.177Z,24.83
2022-08-27T15:11:26.106Z,25.06
2022-08-27T15:13:53.071Z,24.85
2022-08-27T15:16:32.379Z,25.16
2022-08-27T15:19:00.874Z,25.14
2022-08-27T15:21:29.075Z,23.91
2022-08-27T15:23:58.848Z,24.85
2022-08-27T15:26:25.574Z,23.67
2022-08-27T15:28:52.240Z,24.19
2022-08-27T15:31:19.768Z,24.58
2022-08-27T15:33:46.779Z,24.93
2022-08-27T15:36:13.946Z,23.30
2022-08-27T15:38:40.784Z,24.24
2022-08-27T15:41:07.736Z,24.62
2022-08-27T15:43:34.622Z,24.61
2022-08-27T15:46:01.375Z,24.52
2022-08-27T15:48:28.056Z,23.78
2022-08-27T15:50:54.888Z,23.74
2022-08-27T15:53:23.054Z,24.26
2022-08-27T15:55:50.338Z,23.95
2022-08-27T15:58:17.110Z,24.03
2022-08-27T16:00:44.004Z,22.72
2022-08-27T16:03:11.738Z,24.38
2022-08-27T16:05:39.396Z,24.18
2022-08-27T16:08:06.289Z,23.88
2022-08-27T16:10:32.961Z,24.06
2022-08-27T16:12:59.639Z,23.85
2022-08-27T16:15:26.520Z,23.95
2022-08-27T16:17:56.273Z,22.59
2022-08-27T16:20:24.722Z,23.33
2022-08-27T16:22:51.852Z,22.77
2022-08-27T16:25:20.758Z,21.94
2022-08-27T16:27:47.706Z,22.04
2022-08-27T16:30:14.391Z,21.70
2022-08-27T16:32:41.379Z,22.76
2022-08-27T16:35:08.991Z,23.02
2022-08-27T16:37:35.664Z,22.43
2022-08-27T16:40:02.621Z,22.43
2022-08-27T16:42:29.321Z,22.54
2022-08-27T16:44:57.963Z,22.01
2022-08-27T16:47:24.616Z,21.94
2022-08-27T16:50:09.851Z,21.86
2022-08-27T16:52:58.788Z,21.32
2022-08-27T16:55:25.486Z,21.59
2022-08-27T16:57:52.076Z,21.92
2022-08-27T17:00:19.441Z,21.80
2022-08-27T17:02:46.206Z,21.82
2022-08-27T17:05:33.653Z,21.55
2022-08-27T17:07:59.510Z,21.84
2022-08-27T17:10:26.407Z,21.56
2022-08-27T17:12:54.238Z,21.55
2022-08-27T17:15:20.881Z,21.24
2022-08-27T17:17:47.560Z,21.35
2022-08-27T17:20:15.279Z,21.54
2022-08-27T17:22:42.101Z,19.86
2022-08-27T17:25:09.380Z,21.22
2022-08-27T17:27:35.975Z,20.00
2022-08-27T17:30:02.592Z,21.17
2022-08-27T17:32:29.974Z,20.86
2022-08-27T17:34:56.873Z,20.50
2022-08-27T17:37:23.560Z,20.50
2022-08-27T17:39:50.353Z,20.86
2022-08-27T17:42:17.085Z,20.50
2022-08-27T17:44:43.766Z,20.19
2022-08-27T17:47:10.452Z,20.74
2022-08-27T17:49:37.704Z,20.38
2022-08-27T17:52:09.729Z,20.46
2022-08-27T17:54:39.144Z,20.57
2022-08-27T17:57:14.766Z,20.75
2022-08-27T17:59:41.402Z,20.57
2022-08-27T18:02:09.610Z,20.69
2022-08-27T18:04:37.249Z,20.16
2022-08-27T18:07:04.211Z,20.35
2022-08-27T18:09:30.873Z,20.13
2022-08-27T18:11:58.035Z,20.08
2022-08-27T18:14:24.835Z,20.48
2022-08-27T18:16:51.558Z,19.24
2022-08-27T18:19:18.317Z,20.04
2022-08-27T18:21:46.283Z,18.78
2022-08-27T18:24:14.220Z,20.31
2022-08-27T18:26:40.899Z,20.15
2022-08-27T18:29:07.570Z,19.45
2022-08-27T18:31:34.223Z,20.26
2022-08-27T18:34:01.006Z,18.41
2022-08-27T18:36:28.001Z,20.01
2022-08-27T18:38:54.655Z,20.22
2022-08-27T18:41:21.342Z,18.75
2022-08-27T18:43:48.912Z,20.04
2022-08-27T18:46:15.857Z,20.43
2022-08-27T18:48:42.673Z,18.61
2022-08-27T18:51:10.262Z,19.54
2022-08-27T18:53:39.916Z,19.66
2022-08-27T18:56:10.288Z,20.01
2022-08-27T18:58:38.743Z,19.97
2022-08-27T19:01:07.786Z,20.02
2022-08-27T19:03:36.815Z,19.82
2022-08-27T19:06:06.805Z,19.82
2022-08-27T19:08:36.831Z,20.37
2022-08-27T19:11:03.465Z,19.16
2022-08-27T19:13:30.185Z,20.09
2022-08-27T19:16:04.718Z,19.88
2022-08-27T19:18:32.946Z,20.20
2022-08-27T19:20:59.663Z,20.48
2022-08-27T19:23:26.408Z,19.65
2022-08-27T19:25:53.185Z,19.92
2022-08-27T19:28:23.898Z,20.43
2022-08-27T19:30:50.798Z,19.73
2022-08-27T19:33:17.829Z,20.33
2022-08-27T19:35:44.518Z,19.44
2022-08-27T19:38:11.491Z,18.60
2022-08-27T19:40:38.380Z,18.58
2022-08-27T19:43:05.280Z,19.62
2022-08-27T19:45:31.964Z,18.51
2022-08-27T19:47:59.462Z,18.42
2022-08-27T19:50:26.105Z,19.77
2022-08-27T19:52:53.096Z,19.19
2022-08-27T19:55:19.970Z,19.76
2022-08-27T19:57:46.915Z,20.03
2022-08-27T20:00:14.999Z,19.53
2022-08-27T20:02:41.636Z,18.43
2022-08-27T20:05:23.855Z,19.56
2022-08-27T20:07:51.491Z,19.72
2022-08-27T20:10:19.595Z,19.48
2022-08-27T20:12:48.357Z,18.04
2022-08-27T20:15:15.647Z,19.00
2022-08-27T20:17:42.696Z,19.28
2022-08-27T20:20:11.601Z,18.93
2022-08-27T20:22:39.875Z,19.01
2022-08-27T20:25:07.019Z,19.21
2022-08-27T20:27:33.761Z,18.85
2022-08-27T20:30:05.314Z,18.57
2022-08-27T20:32:32.255Z,18.88
2022-08-27T20:34:58.887Z,17.36
2022-08-27T20:37:25.985Z,17.82
2022-08-27T20:39:52.836Z,17.09
2022-08-27T20:42:20.057Z,18.64
2022-08-27T20:45:09.758Z,18.34
2022-08-27T20:47:38.639Z,17.68
2022-08-27T20:50:05.806Z,17.97
2022-08-27T20:52:32.668Z,17.63
2022-08-27T20:54:59.376Z,18.25
2022-08-27T20:57:26.076Z,17.29
2022-08-27T21:00:11.259Z,18.43
2022-08-27T21:02:37.953Z,18.50
2022-08-27T21:05:07.446Z,18.16
2022-08-27T21:07:34.200Z,18.36
2022-08-27T21:10:00.883Z,18.19
2022-08-27T21:12:28.107Z,17.46
2022-08-27T21:14:55.882Z,17.35
2022-08-27T21:17:26.333Z,17.76
2022-08-27T21:19:52.990Z,16.82
2022-08-27T21:22:20.210Z,17.61
2022-08-27T21:24:47.630Z,17.30
2022-08-27T21:27:15.341Z,17.24
2022-08-27T21:29:42.095Z,15.74
2022-08-27T21:32:09.773Z,17.73
2022-08-27T21:34:36.740Z,16.85
2022-08-27T21:37:04.464Z,17.41
2022-08-27T21:39:32.871Z,17.53
2022-08-27T21:42:01.040Z,16.86
2022-08-27T21:44:28.351Z,16.73
2022-08-27T21:46:55.243Z,17.28
2022-08-27T21:49:21.968Z,16.96
2022-08-27T21:51:48.573Z,17.18
2022-08-27T21:54:15.318Z,17.48
2022-08-27T21:56:43.325Z,17.32
2022-08-27T21:59:10.574Z,17.12
2022-08-27T22:01:37.383Z,17.04
2022-08-27T22:04:04.148Z,16.22
2022-08-27T22:06:30.874Z,16.94
2022-08-27T22:08:57.915Z,16.74
2022-08-27T22:11:25.736Z,16.66
2022-08-27T22:13:52.981Z,16.50
2022-08-27T22:16:19.872Z,16.80
2022-08-27T22:18:46.583Z,15.65
2022-08-27T22:21:13.350Z,17.13
2022-08-27T22:23:42.320Z,17.33
2022-08-27T22:26:12.129Z,15.86
2022-08-27T22:28:39.057Z,17.43
2022-08-27T22:31:07.556Z,17.10
2022-08-27T22:33:34.320Z,16.99
2022-08-27T22:36:01.141Z,16.95
2022-08-27T22:38:27.812Z,16.98
2022-08-27T22:40:54.599Z,16.02
2022-08-27T22:43:23.491Z,16.92
2022-08-27T22:45:50.174Z,16.09
2022-08-27T22:48:16.995Z,16.78
2022-08-27T22:50:43.784Z,16.79
2022-08-27T22:53:10.544Z,16.70
2022-08-27T22:55:37.528Z,16.95
2022-08-27T22:58:04.336Z,16.66
2022-08-27T23:00:33.391Z,16.03
2022-08-27T23:03:00.647Z,16.93
2022-08-27T23:05:27.628Z,16.65
2022-08-27T23:07:55.174Z,17.06
2022-08-27T23:10:24.113Z,16.59
2022-08-27T23:12:53.535Z,15.80
2022-08-27T23:15:20.998Z,16.69
2022-08-27T23:17:47.660Z,16.67
2022-08-27T23:20:14.520Z,16.83
2022-08-27T23:22:41.356Z,16.45
2022-08-27T23:25:27.064Z,16.60
2022-08-27T23:27:53.831Z,16.37
2022-08-27T23:30:21.308Z,16.46
2022-08-27T23:32:52.685Z,16.66
2022-08-27T23:35:26.271Z,16.00
2022-08-27T23:37:53.020Z,16.60
2022-08-27T23:40:20.294Z,16.47
2022-08-27T23:42:47.517Z,15.45
2022-08-27T23:45:17.802Z,16.41
2022-08-27T23:47:44.467Z,16.52
2022-08-27T23:50:11.578Z,16.48
2022-08-27T23:52:38.432Z,16.56
2022-08-27T23:55:05.521Z,16.47
2022-08-27T23:57:32.505Z,16.27
2022-08-27T23:59:59.112Z,16.28
